Time;durP1;ratioP1;P1;durP2;ratioP2;P2;SDS_P1;SDS_P2;PMS_P1;PMS_P2;Temp;Humidity;BMP_temperature;BMP_pressure;BME280_temperature;BME280_humidity;BME280_pressure;Samples;Min_cycle;Max_cycle;Signal;HPM_P1;HPM_P2
2022/12/19 00:00:14;;;;;;;3.78;0.55;;;11.30;99.90;11.60;100411.00;;;;340074;28;89738;-90
2022/12/19 00:00:26;;;;;;;2.92;0.60;;;11.30;99.90;11.60;100408.00;;;;340336;28;83431;-89
2022/12/19 00:00:38;;;;;;;2.42;0.57;;;11.30;99.90;11.60;100402.00;;;;338528;28;89456;-90
2022/12/19 00:00:50;;;;;;;2.30;0.60;;;11.30;99.90;11.60;100406.00;;;;339125;28;83312;-89
2022/12/19 00:01:05;;;;;;;1.85;0.60;;;11.30;99.90;11.60;100404.00;;;;339813;28;89720;-90
2022/12/19 00:01:20;;;;;;;2.08;0.73;;;11.30;99.90;11.60;100403.00;;;;340352;28;82816;-89
2022/12/19 00:01:34;;;;;;;1.88;0.73;;;11.30;99.90;11.60;100407.00;;;;341072;28;89705;-90
2022/12/19 00:01:46;;;;;;;1.48;0.45;;;11.30;99.90;11.60;100405.00;;;;338999;28;83350;-90
2022/12/19 00:01:58;;;;;;;1.75;0.38;;;11.30;99.90;11.60;100411.00;;;;339826;28;90857;-89
2022/12/19 00:02:10;;;;;;;2.13;0.52;;;11.30;99.90;11.60;100407.00;;;;340315;28;83550;-89
2022/12/19 00:02:22;;;;;;;1.90;0.70;;;11.30;99.90;11.60;100400.00;;;;342615;28;89767;-89
2022/12/19 00:02:35;;;;;;;2.42;0.63;;;11.30;99.90;11.70;100412.00;;;;340229;28;83488;-90
2022/12/19 00:02:47;;;;;;;3.33;0.50;;;11.30;99.90;11.60;100411.00;;;;339778;28;91245;-90
2022/12/19 00:03:00;;;;;;;3.08;0.40;;;11.30;99.90;11.70;100406.00;;;;340128;28;82594;-90
2022/12/19 00:03:12;;;;;;;1.80;0.43;;;11.30;99.90;11.60;100411.00;;;;340220;28;88780;-89
2022/12/19 00:03:24;;;;;;;2.17;0.50;;;11.30;99.90;11.70;100404.00;;;;340160;28;83527;-90
2022/12/19 00:03:37;;;;;;;1.58;0.47;;;11.30;99.90;11.60;100405.00;;;;341324;28;89007;-89
2022/12/19 00:03:52;;;;;;;2.67;0.40;;;11.30;99.90;11.60;100413.00;;;;337681;28;83253;-90
2022/12/19 00:04:07;;;;;;;2.65;0.40;;;11.30;99.90;11.60;100406.00;;;;341411;28;91531;-90
2022/12/19 00:04:20;;;;;;;1.92;0.43;;;11.30;99.90;11.60;100416.00;;;;340414;28;83415;-89
2022/12/19 00:04:32;;;;;;;2.53;0.77;;;11.40;99.90;11.60;100410.00;;;;339952;28;89567;-90
2022/12/19 00:04:44;;;;;;;2.88;0.85;;;11.30;99.90;11.60;100404.00;;;;339897;28;82421;-90
2022/12/19 00:04:56;;;;;;;3.00;0.70;;;11.30;99.90;11.60;100400.00;;;;342812;28;88037;-89
2022/12/19 00:05:08;;;;;;;2.40;0.63;;;11.30;99.90;11.60;100412.00;;;;340391;28;83362;-90
2022/12/19 00:05:21;;;;;;;1.42;0.75;;;11.30;99.90;11.60;100416.00;;;;339837;28;89577;-90
2022/12/19 00:05:37;;;;;;;1.80;0.88;;;11.30;99.90;11.60;100404.00;;;;339013;28;83332;-90
2022/12/19 00:05:49;;;;;;;2.15;0.65;;;11.30;99.90;11.60;100395.00;;;;337520;28;89443;-90
2022/12/19 00:06:02;;;;;;;1.92;0.47;;;11.30;99.90;11.60;100415.00;;;;339113;28;82525;-90
2022/12/19 00:06:15;;;;;;;1.90;0.60;;;11.30;99.90;11.60;100393.00;;;;341321;28;90441;-90
2022/12/19 00:06:27;;;;;;;2.10;0.60;;;11.30;99.90;11.60;100393.00;;;;341714;28;82582;-89
2022/12/19 00:06:39;;;;;;;2.65;0.40;;;11.30;99.90;11.60;100404.00;;;;341471;28;87877;-90
2022/12/19 00:06:57;;;;;;;3.92;1.05;;;11.30;99.90;11.60;100402.00;;;;341432;28;84161;-89
2022/12/19 00:07:09;;;;;;;2.65;1.10;;;11.30;99.90;11.60;100399.00;;;;343771;28;88431;-89
2022/12/19 00:07:21;;;;;;;1.63;0.55;;;11.30;99.90;11.60;100397.00;;;;341777;28;83333;-89
2022/12/19 00:07:34;;;;;;;1.90;0.60;;;11.30;99.90;11.60;100401.00;;;;342674;28;90632;-90
2022/12/19 00:07:48;;;;;;;2.22;0.75;;;11.30;99.90;11.60;100399.00;;;;341798;28;82511;-89
2022/12/19 00:08:00;;;;;;;1.92;0.75;;;11.30;99.90;11.60;100406.00;;;;341101;28;90379;-90
2022/12/19 00:08:31;;;;;;;1.88;0.77;;;11.30;99.90;11.50;100404.00;;;;342683;28;83004;-89
2022/12/19 00:08:44;;;;;;;1.83;0.50;;;11.30;99.90;11.60;100396.00;;;;339913;28;90728;-89
2022/12/19 00:08:57;;;;;;;3.08;0.70;;;11.30;99.90;11.60;100401.00;;;;341648;28;82511;-88
2022/12/19 00:09:10;;;;;;;3.30;0.82;;;11.30;99.90;11.60;100403.00;;;;342629;28;89456;-89
2022/12/19 00:09:21;;;;;;;2.40;0.60;;;11.30;99.90;11.70;100401.00;;;;340382;28;83371;-89
2022/12/19 00:09:33;;;;;;;2.92;0.60;;;11.30;99.90;11.60;100386.00;;;;340114;28;89921;-89
2022/12/19 00:09:46;;;;;;;2.92;0.60;;;11.30;99.90;11.60;100399.00;;;;340459;28;82452;-89
2022/12/19 00:09:58;;;;;;;3.20;0.63;;;11.30;99.90;11.60;100396.00;;;;340100;28;88053;-90
2022/12/19 00:10:10;;;;;;;1.92;0.60;;;11.30;99.90;11.60;100395.00;;;;341754;28;83544;-90
2022/12/19 00:10:22;;;;;;;2.15;0.70;;;11.30;99.90;11.70;100393.00;;;;343807;28;89523;-89
2022/12/19 00:10:34;;;;;;;2.15;0.63;;;11.30;99.90;11.70;100408.00;;;;343151;28;82370;-90
2022/12/19 00:10:57;;;;;;;2.17;0.60;;;11.30;99.90;11.70;100404.00;;;;341476;28;88383;-89
2022/12/19 00:11:10;;;;;;;4.90;1.00;;;11.30;99.90;11.60;100406.00;;;;340164;28;83534;-89
2022/12/19 00:11:23;;;;;;;4.80;1.00;;;11.30;99.90;11.60;100394.00;;;;339712;28;90957;-89
2022/12/19 00:11:34;;;;;;;3.60;0.60;;;11.30;99.90;11.60;100388.00;;;;341793;28;83346;-89
2022/12/19 00:11:47;;;;;;;2.58;0.60;;;11.30;99.90;11.70;100396.00;;;;341198;28;89456;-90
2022/12/19 00:11:59;;;;;;;2.33;0.50;;;11.30;99.90;11.70;100396.00;;;;340180;28;83542;-89
2022/12/19 00:12:11;;;;;;;2.92;0.57;;;11.30;99.90;11.60;100402.00;;;;338606;28;89541;-89
2022/12/19 00:12:30;;;;;;;2.55;0.60;;;11.30;99.90;11.50;100387.00;;;;340472;28;82592;-88
2022/12/19 00:12:42;;;;;;;2.40;0.50;;;11.30;99.90;11.60;100383.00;;;;342731;28;90216;-90
2022/12/19 00:12:53;;;;;;;2.88;0.57;;;11.30;99.90;11.60;100386.00;;;;339113;28;83374;-90
2022/12/19 00:13:05;;;;;;;2.60;0.70;;;11.30;99.90;11.60;100390.00;;;;341232;28;89446;-90
2022/12/19 00:13:17;;;;;;;2.00;0.60;;;11.30;99.90;11.50;100393.00;;;;341887;28;82340;-90
2022/12/19 00:13:30;;;;;;;2.05;0.57;;;11.30;99.90;11.50;100404.00;;;;341137;28;91340;-89
2022/12/19 00:13:51;;;;;;;3.13;0.60;;;11.30;99.90;11.60;100385.00;;;;343037;28;83509;-90
2022/12/19 00:14:03;;;;;;;5.80;0.90;;;11.30;99.90;11.60;100391.00;;;;340111;28;88031;-89
2022/12/19 00:14:16;;;;;;;5.75;1.02;;;11.30;99.90;11.60;100391.00;;;;340403;28;83253;-90
2022/12/19 00:14:28;;;;;;;2.85;0.88;;;11.30;99.90;11.70;100390.00;;;;341136;28;90393;-90
2022/12/19 00:14:40;;;;;;;2.25;0.93;;;11.30;99.90;11.60;100376.00;;;;340189;28;83456;-89
2022/12/19 00:14:52;;;;;;;1.77;0.70;;;11.30;99.90;11.60;100390.00;;;;343885;28;91555;-89
2022/12/19 00:15:04;;;;;;;2.50;0.80;;;11.30;99.90;11.60;100376.00;;;;341697;28;82851;-89
2022/12/19 00:15:16;;;;;;;2.47;0.82;;;11.30;99.90;11.60;100373.00;;;;339887;28;89313;-90
2022/12/19 00:15:28;;;;;;;1.80;0.80;;;11.30;99.90;11.60;100383.00;;;;341644;28;82373;-89
2022/12/19 00:15:40;;;;;;;2.13;0.80;;;11.30;99.90;11.60;100395.00;;;;340066;28;88075;-90
2022/12/19 00:15:52;;;;;;;2.90;0.50;;;11.30;99.90;11.70;100371.00;;;;341748;28;82399;-89
2022/12/19 00:16:10;;;;;;;3.72;0.57;;;11.30;99.90;11.70;100380.00;;;;340037;28;88470;-90
2022/12/19 00:16:27;;;;;;;2.15;0.50;;;11.30;99.90;11.70;100386.00;;;;339065;28;83488;-89
2022/12/19 00:16:40;;;;;;;2.05;0.60;;;11.30;99.90;11.60;100381.00;;;;340024;28;88792;-90
2022/12/19 00:16:52;;;;;;;2.92;0.70;;;11.30;99.90;11.60;100378.00;;;;341707;28;83408;-89
2022/12/19 00:17:04;;;;;;;4.47;0.70;;;11.30;99.90;11.60;100380.00;;;;342686;28;89142;-89
2022/12/19 00:17:16;;;;;;;4.30;0.70;;;11.30;99.90;11.70;100378.00;;;;339021;28;83345;-89
2022/12/19 00:17:28;;;;;;;3.70;0.60;;;11.30;99.90;11.70;100384.00;;;;341290;28;88116;-89
2022/12/19 00:17:40;;;;;;;3.80;0.70;;;11.30;99.90;11.60;100372.00;;;;340414;28;82663;-90
2022/12/19 00:17:53;;;;;;;3.50;0.65;;;11.30;99.90;11.60;100385.00;;;;341387;28;88355;-90
2022/12/19 00:18:05;;;;;;;2.45;0.77;;;11.30;99.90;11.60;100394.00;;;;341453;28;83783;-90
2022/12/19 00:18:16;;;;;;;3.10;1.20;;;11.30;99.90;11.60;100381.00;;;;340095;28;89645;-89
2022/12/19 00:18:29;;;;;;;3.05;1.00;;;11.30;99.90;11.60;100380.00;;;;341805;28;82683;-89
2022/12/19 00:18:42;;;;;;;2.85;0.93;;;11.30;99.90;11.50;100378.00;;;;341466;28;88162;-89
2022/12/19 00:18:57;;;;;;;1.63;0.40;;;11.30;99.90;11.50;100379.00;;;;342900;28;83473;-88
2022/12/19 00:19:09;;;;;;;1.70;0.40;;;11.30;99.90;11.50;100382.00;;;;340130;28;88931;-89
2022/12/19 00:19:21;;;;;;;2.15;0.40;;;11.30;99.90;11.60;100382.00;;;;341802;28;82619;-89
2022/12/19 00:19:33;;;;;;;2.42;0.50;;;11.30;99.90;11.60;100371.00;;;;339890;28;90702;-89
2022/12/19 00:19:45;;;;;;;2.50;0.50;;;11.30;99.90;11.60;100379.00;;;;341559;28;83534;-89
2022/12/19 00:19:57;;;;;;;1.98;0.50;;;11.30;99.90;11.60;100382.00;;;;341329;28;89639;-90
2022/12/19 00:20:10;;;;;;;2.15;0.40;;;11.30;99.90;11.60;100385.00;;;;340408;28;83444;-89
2022/12/19 00:20:22;;;;;;;1.80;0.47;;;11.30;99.90;11.50;100379.00;;;;342318;28;88750;-89
2022/12/19 00:20:34;;;;;;;2.15;0.60;;;11.30;99.90;11.60;100384.00;;;;341788;28;83368;-90
2022/12/19 00:20:56;;;;;;;2.40;0.70;;;11.30;99.90;11.60;100378.00;;;;341204;28;89987;-89
2022/12/19 00:21:10;;;;;;;1.85;0.70;;;11.30;99.90;11.60;100379.00;;;;340415;28;83436;-89
2022/12/19 00:21:26;;;;;;;1.92;0.65;;;11.30;99.90;11.60;100379.00;;;;338673;28;90744;-89
2022/12/19 00:21:38;;;;;;;1.90;0.63;;;11.30;99.90;11.50;100384.00;;;;339069;28;83529;-89
2022/12/19 00:21:50;;;;;;;2.20;0.60;;;11.30;99.90;11.50;100376.00;;;;340098;28;88514;-89
2022/12/19 00:22:01;;;;;;;2.14;0.64;;;11.30;99.90;11.60;100376.00;;;;340020;28;83890;-89
2022/12/19 00:22:18;;;;;;;1.88;0.50;;;11.30;99.90;11.50;100376.00;;;;341030;28;89799;-89
2022/12/19 00:22:30;;;;;;;2.78;0.60;;;11.30;99.90;11.60;100387.00;;;;343125;28;83513;-89
2022/12/19 00:22:43;;;;;;;2.97;0.75;;;11.30;99.90;11.60;100384.00;;;;341360;28;89525;-89
2022/12/19 00:22:55;;;;;;;2.60;0.73;;;11.30;99.90;11.50;100382.00;;;;343061;28;83390;-89
2022/12/19 00:23:07;;;;;;;2.33;0.80;;;11.30;99.90;11.50;100384.00;;;;340006;28;88279;-89
2022/12/19 00:23:18;;;;;;;1.92;0.50;;;11.30;99.90;11.50;100378.00;;;;340415;28;83416;-89
2022/12/19 00:23:32;;;;;;;1.70;0.50;;;11.30;99.90;11.60;100371.00;;;;339793;28;93539;-89
2022/12/19 00:23:44;;;;;;;1.42;0.40;;;11.20;99.90;11.50;100378.00;;;;338968;28;83749;-89
2022/12/19 00:23:56;;;;;;;1.60;0.40;;;11.30;99.90;11.60;100369.00;;;;341093;28;92175;-89
2022/12/19 00:24:13;;;;;;;2.12;0.42;;;11.30;99.90;11.60;100372.00;;;;341670;28;82647;-89
2022/12/19 00:24:32;;;;;;;1.92;0.50;;;11.30;99.90;11.60;100374.00;;;;338564;28;89139;-89
2022/12/19 00:24:44;;;;;;;1.85;0.88;;;11.30;99.90;11.60;100364.00;;;;340341;28;83435;-89
2022/12/19 00:24:56;;;;;;;2.20;1.00;;;11.30;99.90;11.60;100374.00;;;;338597;28;88715;-89
2022/12/19 00:25:08;;;;;;;1.75;0.60;;;11.20;99.90;11.60;100369.00;;;;340318;28;83307;-89
2022/12/19 00:25:20;;;;;;;1.60;0.57;;;11.30;99.90;11.50;100386.00;;;;339958;28;89862;-90
2022/12/19 00:25:32;;;;;;;1.85;0.70;;;11.30;99.90;11.50;100371.00;;;;340226;28;83424;-89
2022/12/19 00:25:45;;;;;;;3.20;0.90;;;11.30;99.90;11.60;100369.00;;;;335935;28;89790;-89
2022/12/19 00:26:13;;;;;;;2.78;0.98;;;11.30;99.90;11.70;100385.00;;;;337675;28;82465;-89
2022/12/19 00:26:30;;;;;;;2.67;0.50;;;11.30;99.90;11.70;100378.00;;;;339943;28;89888;-90
2022/12/19 00:26:42;;;;;;;2.17;0.60;;;11.30;99.90;11.70;100360.00;;;;340138;28;83562;-90
2022/12/19 00:26:54;;;;;;;2.03;0.70;;;11.30;99.90;11.70;100373.00;;;;338339;28;91343;-89
2022/12/19 00:27:07;;;;;;;3.28;0.80;;;11.30;99.90;11.70;100373.00;;;;342748;28;82587;-89
2022/12/19 00:27:18;;;;;;;3.30;0.68;;;11.30;99.90;11.60;100369.00;;;;338471;28;90836;-90
2022/12/19 00:27:34;;;;;;;1.90;0.60;;;11.30;99.90;11.60;100372.00;;;;340371;28;82568;-90
2022/12/19 00:27:46;;;;;;;2.05;0.90;;;11.30;99.90;11.60;100380.00;;;;341234;28;89533;-90
2022/12/19 00:27:58;;;;;;;2.20;0.80;;;11.30;99.90;11.60;100383.00;;;;340037;28;83473;-90
2022/12/19 00:28:10;;;;;;;2.22;0.57;;;11.30;99.90;11.60;100364.00;;;;338627;28;90324;-90
2022/12/19 00:28:22;;;;;;;1.73;0.50;;;11.30;99.90;11.60;100368.00;;;;341674;28;83550;-89
2022/12/19 00:28:34;;;;;;;1.80;0.50;;;11.30;99.90;11.70;100373.00;;;;339798;28;91249;-89
2022/12/19 00:28:48;;;;;;;1.90;0.50;;;11.30;99.90;11.70;100386.00;;;;341479;28;83755;-90
2022/12/19 00:29:03;;;;;;;1.38;0.45;;;11.30;99.90;11.70;100366.00;;;;341288;28;88806;-89
2022/12/19 00:29:20;;;;;;;1.63;0.40;;;11.30;99.90;11.70;100385.00;;;;340396;28;83370;-90
2022/12/19 00:29:32;;;;;;;1.80;0.43;;;11.40;99.90;11.80;100379.00;;;;341509;28;89016;-89
2022/12/19 00:29:46;;;;;;;1.60;0.68;;;11.40;99.90;11.80;100387.00;;;;343065;28;82535;-89
2022/12/19 00:29:58;;;;;;;1.77;0.60;;;11.40;99.90;11.70;100377.00;;;;341411;28;88482;-89
2022/12/19 00:30:10;;;;;;;1.88;0.50;;;11.40;99.90;11.70;100384.00;;;;340362;28;82485;-89
2022/12/19 00:30:22;;;;;;;2.22;0.40;;;11.40;99.90;11.60;100379.00;;;;338633;28;89576;-89
2022/12/19 00:30:35;;;;;;;2.30;0.52;;;11.40;99.90;11.60;100377.00;;;;340161;28;83662;-89
2022/12/19 00:30:47;;;;;;;2.40;0.60;;;11.40;99.90;11.70;100385.00;;;;340068;28;88268;-89
2022/12/19 00:31:00;;;;;;;2.67;0.90;;;11.40;99.90;11.70;100380.00;;;;338977;28;83421;-90
2022/12/19 00:31:13;;;;;;;2.42;0.88;;;11.40;99.90;11.70;100380.00;;;;340005;28;91424;-89
2022/12/19 00:31:27;;;;;;;1.50;0.75;;;11.40;99.90;11.80;100389.00;;;;338839;28;83428;-90
2022/12/19 00:31:39;;;;;;;1.20;0.60;;;11.40;99.90;11.70;100387.00;;;;341368;28;89225;-89
2022/12/19 00:31:51;;;;;;;2.22;0.65;;;11.40;99.90;11.70;100401.00;;;;342648;28;83592;-89
2022/12/19 00:32:03;;;;;;;2.47;0.68;;;11.40;99.90;11.70;100386.00;;;;339925;28;87548;-89
2022/12/19 00:32:15;;;;;;;2.92;0.80;;;11.40;99.90;11.70;100389.00;;;;340309;28;83350;-89
2022/12/19 00:32:27;;;;;;;2.85;0.68;;;11.40;99.90;11.70;100384.00;;;;341259;28;90707;-90
2022/12/19 00:32:39;;;;;;;2.30;0.50;;;11.40;99.90;11.80;100377.00;;;;339126;28;82476;-89
2022/12/19 00:32:51;;;;;;;2.40;0.70;;;11.40;99.90;11.80;100389.00;;;;341382;28;88353;-90
2022/12/19 00:33:03;;;;;;;2.58;0.68;;;11.40;99.90;11.80;100379.00;;;;338790;28;84116;-90
2022/12/19 00:33:15;;;;;;;2.55;0.52;;;11.40;99.90;11.80;100386.00;;;;338622;28;88491;-89
2022/12/19 00:33:27;;;;;;;2.95;0.50;;;11.40;99.90;11.80;100378.00;;;;341520;28;83497;-90
2022/12/19 00:33:41;;;;;;;2.33;0.80;;;11.40;99.90;11.70;100379.00;;;;342791;28;88946;-89
2022/12/19 00:33:54;;;;;;;2.15;1.10;;;11.40;99.90;11.80;100378.00;;;;341759;28;82911;-89
2022/12/19 00:34:06;;;;;;;2.25;0.98;;;11.40;99.90;11.80;100377.00;;;;339559;28;92040;-90
2022/12/19 00:34:17;;;;;;;2.17;0.52;;;11.40;99.90;11.80;100372.00;;;;341815;28;82366;-89
2022/12/19 00:34:29;;;;;;;2.55;0.70;;;11.40;99.90;11.80;100372.00;;;;340985;28;91913;-89
2022/12/19 00:34:41;;;;;;;2.83;0.90;;;11.50;99.90;11.80;100368.00;;;;341724;28;82383;-90
2022/12/19 00:34:53;;;;;;;1.73;0.55;;;11.40;99.90;11.90;100376.00;;;;339975;28;91448;-90
2022/12/19 00:35:05;;;;;;;1.48;0.98;;;11.50;99.90;11.80;100375.00;;;;342843;28;84062;-90
2022/12/19 00:35:17;;;;;;;1.80;0.88;;;11.50;99.90;11.80;100372.00;;;;340049;28;89524;-90
2022/12/19 00:35:29;;;;;;;1.98;0.68;;;11.50;99.90;11.70;100372.00;;;;341788;28;83127;-89
2022/12/19 00:35:40;;;;;;;2.17;0.50;;;11.40;99.90;11.80;100366.00;;;;341028;28;90909;-89
2022/12/19 00:36:03;;;;;;;1.63;0.50;;;11.50;99.90;11.80;100369.00;;;;338784;28;83371;-89
2022/12/19 00:36:19;;;;;;;1.25;0.40;;;11.50;99.90;11.80;100371.00;;;;338596;28;88965;-90
2022/12/19 00:36:33;;;;;;;2.15;0.50;;;11.50;99.90;11.80;100372.00;;;;341842;28;82415;-90
2022/12/19 00:36:45;;;;;;;3.45;0.90;;;11.50;99.90;11.80;100374.00;;;;341396;28;89083;-89
2022/12/19 00:36:57;;;;;;;2.50;0.80;;;11.50;99.90;11.80;100371.00;;;;339109;28;82510;-90
2022/12/19 00:37:10;;;;;;;3.03;0.85;;;11.50;99.90;11.80;100357.00;;;;342714;28;91003;-90
2022/12/19 00:37:22;;;;;;;3.25;1.20;;;11.50;99.90;11.70;100364.00;;;;341609;28;84054;-89
2022/12/19 00:37:34;;;;;;;3.16;1.30;;;11.50;99.90;11.80;100364.00;;;;341272;28;92156;-89
2022/12/19 00:37:49;;;;;;;3.42;0.98;;;11.50;99.90;11.80;100358.00;;;;341730;28;83413;-89
2022/12/19 00:38:01;;;;;;;3.20;0.70;;;11.50;99.90;11.80;100350.00;;;;341257;28;91803;-89
2022/12/19 00:38:13;;;;;;;2.00;0.73;;;11.50;99.90;11.70;100340.00;;;;341791;28;82486;-89
2022/12/19 00:38:26;;;;;;;2.80;0.75;;;11.50;99.90;11.70;100367.00;;;;339869;28;91969;-89
2022/12/19 00:38:38;;;;;;;4.25;0.82;;;11.40;99.90;11.70;100344.00;;;;341490;28;83294;-89
2022/12/19 00:38:51;;;;;;;3.40;0.57;;;11.40;99.90;11.70;100341.00;;;;339778;28;91994;-89
2022/12/19 00:39:03;;;;;;;1.95;0.47;;;11.50;99.90;11.70;100352.00;;;;338933;28;83266;-89
2022/12/19 00:39:19;;;;;;;1.67;0.50;;;11.40;99.90;11.60;100354.00;;;;337298;28;89430;-89
2022/12/19 00:39:31;;;;;;;2.40;0.60;;;11.50;99.90;11.70;100356.00;;;;341605;28;83365;-89
2022/12/19 00:39:43;;;;;;;4.30;0.82;;;11.40;99.90;11.70;100369.00;;;;337339;28;88697;-89
2022/12/19 00:39:55;;;;;;;4.35;0.85;;;11.40;99.90;11.70;100373.00;;;;340340;28;84565;-89
2022/12/19 00:40:07;;;;;;;3.80;0.85;;;11.40;99.90;11.80;100372.00;;;;340025;28;89465;-90
2022/12/19 00:40:19;;;;;;;2.35;0.73;;;11.40;99.90;11.70;100374.00;;;;338949;28;83336;-89
2022/12/19 00:40:33;;;;;;;1.83;0.73;;;11.40;99.90;11.70;100375.00;;;;338538;28;92130;-90
2022/12/19 00:40:45;;;;;;;2.10;0.70;;;11.40;99.90;11.70;100373.00;;;;341922;28;83069;-89
2022/12/19 00:41:27;;;;;;;2.03;0.68;;;11.40;99.90;11.70;100376.00;;;;336780;28;92096;-89
2022/12/19 00:41:39;;;;;;;4.20;0.82;;;11.40;99.90;11.70;100370.00;;;;337466;28;82577;-89
2022/12/19 00:41:53;;;;;;;2.45;0.88;;;11.40;99.90;11.60;100363.00;;;;339922;28;88803;-89
2022/12/19 00:42:05;;;;;;;1.95;0.60;;;11.40;99.90;11.70;100363.00;;;;340232;28;82695;-90
2022/12/19 00:42:17;;;;;;;4.03;0.50;;;11.40;99.90;11.70;100370.00;;;;339810;28;88603;-89
2022/12/19 00:42:28;;;;;;;4.40;0.50;;;11.40;99.90;11.70;100361.00;;;;339064;28;83446;-89
2022/12/19 00:42:41;;;;;;;2.40;0.40;;;11.40;99.90;11.70;100371.00;;;;341217;28;89937;-90
2022/12/19 00:42:53;;;;;;;1.44;0.40;;;11.40;99.90;11.70;100372.00;;;;341673;28;83360;-89
2022/12/19 00:43:06;;;;;;;1.42;0.50;;;11.40;99.90;11.70;100379.00;;;;341294;28;90964;-89
2022/12/19 00:43:17;;;;;;;1.80;0.60;;;11.40;99.90;11.60;100374.00;;;;340114;28;83384;-90
2022/12/19 00:43:29;;;;;;;1.50;0.50;;;11.40;99.90;11.60;100374.00;;;;339839;28;93252;-89
2022/12/19 00:43:42;;;;;;;2.08;0.40;;;11.40;99.90;11.60;100372.00;;;;338785;28;83788;-89
2022/12/19 00:43:59;;;;;;;3.25;0.75;;;11.40;99.90;11.60;100373.00;;;;338620;28;90067;-89
2022/12/19 00:44:15;;;;;;;3.42;0.80;;;11.40;99.90;11.70;100380.00;;;;340445;28;83278;-90
2022/12/19 00:44:27;;;;;;;2.20;0.47;;;11.40;99.90;11.80;100381.00;;;;339948;28;89854;-89
2022/12/19 00:44:38;;;;;;;1.30;0.47;;;11.40;99.90;11.70;100373.00;;;;340159;28;84890;-89
2022/12/19 00:44:50;;;;;;;4.60;0.90;;;11.40;99.90;11.60;100353.00;;;;338771;28;90042;-89
2022/12/19 00:45:02;;;;;;;4.40;0.93;;;11.30;99.90;11.60;100372.00;;;;340146;28;84985;-89
2022/12/19 00:45:14;;;;;;;3.72;0.93;;;11.30;99.90;11.60;100378.00;;;;338444;28;90129;-89
2022/12/19 00:45:26;;;;;;;1.77;0.68;;;11.30;99.90;11.60;100373.00;;;;341362;28;84009;-89
2022/12/19 00:45:40;;;;;;;3.33;0.50;;;11.40;99.90;11.60;100369.00;;;;339539;28;92454;-90
2022/12/19 00:45:52;;;;;;;2.72;0.30;;;11.40;99.90;11.60;100353.00;;;;340409;28;83535;-89
2022/12/19 00:46:09;;;;;;;2.83;0.60;;;11.30;99.90;11.70;100367.00;;;;340000;28;89485;-90
2022/12/19 00:46:21;;;;;;;2.65;0.70;;;11.30;99.90;11.60;100376.00;;;;340137;28;83823;-89
2022/12/19 00:46:33;;;;;;;3.45;0.88;;;11.40;99.90;11.70;100365.00;;;;339814;28;91671;-90
2022/12/19 00:46:45;;;;;;;4.35;0.80;;;11.40;99.90;11.60;100364.00;;;;339053;28;82487;-89
2022/12/19 00:47:03;;;;;;;3.55;0.50;;;11.40;99.90;11.60;100367.00;;;;340986;28;92302;-89
2022/12/19 00:47:15;;;;;;;2.20;0.43;;;11.30;99.90;11.50;100357.00;;;;337525;28;83423;-89
2022/12/19 00:47:27;;;;;;;1.75;0.50;;;11.30;99.90;11.60;100366.00;;;;340059;28;89771;-89
2022/12/19 00:47:39;;;;;;;1.77;0.50;;;11.30;99.90;11.50;100368.00;;;;338943;28;83702;-90
2022/12/19 00:47:51;;;;;;;1.98;0.40;;;11.30;99.90;11.60;100366.00;;;;338539;28;90431;-89
2022/12/19 00:48:03;;;;;;;2.65;0.50;;;11.30;99.90;11.60;100350.00;;;;338957;28;83304;-89
2022/12/19 00:48:14;;;;;;;2.50;0.40;;;11.30;99.90;11.60;100357.00;;;;341109;28;89194;-88
2022/12/19 00:48:30;;;;;;;1.60;0.50;;;11.30;99.90;11.60;100366.00;;;;340096;28;83091;-89
2022/12/19 00:48:42;;;;;;;1.70;0.60;;;11.30;99.90;11.60;100363.00;;;;340015;28;89788;-89
2022/12/19 00:48:54;;;;;;;1.80;0.90;;;11.30;99.90;11.70;100367.00;;;;341667;28;83208;-88
2022/12/19 00:49:06;;;;;;;2.17;0.80;;;11.30;99.90;11.70;100354.00;;;;339921;28;89375;-89
2022/12/19 00:49:19;;;;;;;2.03;0.75;;;11.40;99.90;11.70;100353.00;;;;341730;28;83349;-89
2022/12/19 00:49:31;;;;;;;1.83;0.50;;;11.30;99.90;11.70;100357.00;;;;339963;28;89828;-90
2022/12/19 00:49:43;;;;;;;1.65;0.50;;;11.30;99.90;11.70;100357.00;;;;343036;28;83397;-90
2022/12/19 00:49:57;;;;;;;2.96;0.70;;;11.30;99.90;11.60;100352.00;;;;338606;28;90170;-89
2022/12/19 00:50:09;;;;;;;3.50;0.70;;;11.40;99.90;11.60;100363.00;;;;340407;28;83639;-89
2022/12/19 00:50:21;;;;;;;2.72;0.43;;;11.30;99.90;11.70;100361.00;;;;340059;28;88540;-89
2022/12/19 00:50:32;;;;;;;2.38;0.40;;;11.30;99.90;11.70;100369.00;;;;340430;28;82529;-90
2022/12/19 00:50:44;;;;;;;2.15;0.50;;;11.30;99.90;11.60;100366.00;;;;341210;28;89089;-89
2022/12/19 00:51:01;;;;;;;3.25;0.50;;;11.30;99.90;11.60;100352.00;;;;338888;28;83457;-89
2022/12/19 00:51:22;;;;;;;3.97;0.65;;;11.30;99.90;11.60;100364.00;;;;341150;28;91002;-89
2022/12/19 00:51:35;;;;;;;3.67;1.30;;;11.30;99.90;11.60;100367.00;;;;342742;28;83627;-89
2022/12/19 00:51:48;;;;;;;2.70;0.63;;;11.30;99.90;11.60;100370.00;;;;341123;28;92042;-89
2022/12/19 00:52:00;;;;;;;2.47;0.50;;;11.30;99.90;11.60;100364.00;;;;340380;28;83315;-89
2022/12/19 00:52:12;;;;;;;2.10;0.50;;;11.30;99.90;11.60;100359.00;;;;341410;28;90844;-90
2022/12/19 00:52:23;;;;;;;2.53;0.50;;;11.30;99.90;11.60;100345.00;;;;342802;28;84654;-89
2022/12/19 00:52:36;;;;;;;2.35;0.50;;;11.30;99.90;11.60;100357.00;;;;341364;28;89781;-89
2022/12/19 00:52:47;;;;;;;2.75;0.60;;;11.30;99.90;11.70;100368.00;;;;340264;28;83911;-90
2022/12/19 00:52:59;;;;;;;2.17;0.60;;;11.30;99.90;11.70;100370.00;;;;338624;28;89712;-89
2022/12/19 00:53:11;;;;;;;1.65;0.45;;;11.30;99.90;11.60;100361.00;;;;340065;28;84993;-89
2022/12/19 00:53:23;;;;;;;1.35;0.43;;;11.30;99.90;11.60;100356.00;;;;340018;28;91818;-90
2022/12/19 00:53:35;;;;;;;2.33;0.47;;;11.30;99.90;11.60;100368.00;;;;340086;28;84905;-90
2022/12/19 00:53:48;;;;;;;2.50;0.50;;;11.30;99.90;11.70;100370.00;;;;341258;28;90877;-89
2022/12/19 00:54:00;;;;;;;1.50;0.40;;;11.30;99.90;11.70;100370.00;;;;337750;28;83243;-90
2022/12/19 00:54:14;;;;;;;1.90;0.40;;;11.30;99.90;11.70;100384.00;;;;339998;28;89217;-89
2022/12/19 00:54:26;;;;;;;2.28;0.50;;;11.30;99.90;11.60;100372.00;;;;339009;28;83798;-89
2022/12/19 00:54:38;;;;;;;1.80;0.60;;;11.30;99.90;11.60;100371.00;;;;338667;28;89015;-89
2022/12/19 00:54:50;;;;;;;2.10;0.70;;;11.30;99.90;11.70;100370.00;;;;338851;28;83841;-89
2022/12/19 00:55:02;;;;;;;2.03;0.60;;;11.40;99.90;11.60;100364.00;;;;337257;28;89752;-89
2022/12/19 00:55:22;;;;;;;1.85;0.50;;;11.40;99.90;11.60;100374.00;;;;339972;28;84954;-90
2022/12/19 00:55:37;;;;;;;2.92;0.50;;;11.30;99.90;11.70;100379.00;;;;337251;28;89060;-89
2022/12/19 00:55:49;;;;;;;2.50;0.38;;;11.40;99.90;11.70;100377.00;;;;340323;28;83548;-89
2022/12/19 00:56:06;;;;;;;1.30;0.50;;;11.30;99.90;11.60;100369.00;;;;338429;28;90481;-89
2022/12/19 00:56:32;;;;;;;3.15;0.60;;;11.30;99.90;11.60;100375.00;;;;340264;28;82574;-89
2022/12/19 00:56:48;;;;;;;4.88;0.95;;;11.40;99.90;11.60;100383.00;;;;338323;28;92653;-89
2022/12/19 00:57:00;;;;;;;4.60;1.00;;;11.40;99.90;11.60;100367.00;;;;338985;28;83458;-89
2022/12/19 00:57:12;;;;;;;3.55;0.60;;;11.30;99.90;11.60;100383.00;;;;341379;28;89168;-89
2022/12/19 00:57:24;;;;;;;2.70;0.60;;;11.30;99.90;11.60;100365.00;;;;341569;28;83542;-89
2022/12/19 00:57:36;;;;;;;2.22;0.43;;;11.30;99.90;11.60;100367.00;;;;341090;28;89469;-90
2022/12/19 00:57:48;;;;;;;2.45;0.60;;;11.40;99.90;11.60;100373.00;;;;340340;28;82310;-89
2022/12/19 00:58:03;;;;;;;3.13;0.68;;;11.30;99.90;11.70;100378.00;;;;339964;28;89969;-89
2022/12/19 00:58:15;;;;;;;3.53;0.50;;;11.40;99.90;11.60;100373.00;;;;340419;28;82309;-88
2022/12/19 00:58:27;;;;;;;2.78;0.47;;;11.30;99.90;11.60;100374.00;;;;340978;28;90916;-90
2022/12/19 00:58:39;;;;;;;1.77;0.60;;;11.30;99.90;11.60;100366.00;;;;341273;28;83503;-88
2022/12/19 00:58:57;;;;;;;2.00;0.70;;;11.30;99.90;11.60;100368.00;;;;338215;28;90730;-89